sensor_id;sensor_type;location;lat;lon;timestamp;P1;durP1;ratioP1;P2;durP2;ratioP2
3795;SDS011;1913;50.660;7.834;2024-03-02T00:02:07;11.43;;;8.30;;
3795;SDS011;1913;50.660;7.834;2024-03-02T00:04:32;9.40;;;7.33;;
3795;SDS011;1913;50.660;7.834;2024-03-02T00:06:58;9.80;;;7.97;;
3795;SDS011;1913;50.660;7.834;2024-03-02T00:09:23;11.83;;;7.87;;
3795;SDS011;1913;50.660;7.834;2024-03-02T00:11:48;10.80;;;8.17;;
3795;SDS011;1913;50.660;7.834;2024-03-02T00:14:13;10.93;;;8.33;;
3795;SDS011;1913;50.660;7.834;2024-03-02T00:16:39;11.63;;;8.33;;
3795;SDS011;1913;50.660;7.834;2024-03-02T00:19:07;13.90;;;8.90;;
3795;SDS011;1913;50.660;7.834;2024-03-02T00:21:33;12.63;;;8.90;;
3795;SDS011;1913;50.660;7.834;2024-03-02T00:23:59;12.83;;;8.57;;
3795;SDS011;1913;50.660;7.834;2024-03-02T00:26:24;16.53;;;8.50;;
3795;SDS011;1913;50.660;7.834;2024-03-02T00:28:50;12.30;;;8.10;;
3795;SDS011;1913;50.660;7.834;2024-03-02T00:31:19;10.90;;;8.20;;
3795;SDS011;1913;50.660;7.834;2024-03-02T00:33:45;12.83;;;8.70;;
3795;SDS011;1913;50.660;7.834;2024-03-02T00:36:15;12.53;;;9.20;;
3795;SDS011;1913;50.660;7.834;2024-03-02T00:41:08;13.87;;;8.87;;
3795;SDS011;1913;50.660;7.834;2024-03-02T00:43:43;13.37;;;9.07;;
3795;SDS011;1913;50.660;7.834;2024-03-02T00:46:12;10.53;;;7.80;;
3795;SDS011;1913;50.660;7.834;2024-03-02T00:48:38;12.67;;;8.73;;
3795;SDS011;1913;50.660;7.834;2024-03-02T00:51:04;11.70;;;7.70;;
3795;SDS011;1913;50.660;7.834;2024-03-02T00:53:29;10.67;;;8.40;;
3795;SDS011;1913;50.660;7.834;2024-03-02T00:55:55;12.20;;;8.50;;
3795;SDS011;1913;50.660;7.834;2024-03-02T00:58:20;11.20;;;8.40;;
3795;SDS011;1913;50.660;7.834;2024-03-02T01:00:46;13.33;;;8.83;;
3795;SDS011;1913;50.660;7.834;2024-03-02T01:03:11;12.60;;;8.47;;
3795;SDS011;1913;50.660;7.834;2024-03-02T01:05:36;11.60;;;7.93;;
3795;SDS011;1913;50.660;7.834;2024-03-02T01:08:02;15.20;;;9.30;;
3795;SDS011;1913;50.660;7.834;2024-03-02T01:10:27;11.30;;;7.80;;
3795;SDS011;1913;50.660;7.834;2024-03-02T01:12:52;14.77;;;8.70;;
3795;SDS011;1913;50.660;7.834;2024-03-02T01:15:17;13.70;;;8.33;;
3795;SDS011;1913;50.660;7.834;2024-03-02T01:17:43;13.90;;;10.00;;
3795;SDS011;1913;50.660;7.834;2024-03-02T01:20:08;14.30;;;10.50;;
3795;SDS011;1913;50.660;7.834;2024-03-02T01:22:34;19.70;;;11.43;;
3795;SDS011;1913;50.660;7.834;2024-03-02T01:25:00;17.27;;;11.40;;
3795;SDS011;1913;50.660;7.834;2024-03-02T01:27:26;19.67;;;12.97;;
3795;SDS011;1913;50.660;7.834;2024-03-02T01:29:52;18.53;;;13.53;;
3795;SDS011;1913;50.660;7.834;2024-03-02T01:32:17;24.60;;;14.00;;
3795;SDS011;1913;50.660;7.834;2024-03-02T01:34:42;27.33;;;14.47;;
3795;SDS011;1913;50.660;7.834;2024-03-02T01:37:08;25.57;;;15.10;;
3795;SDS011;1913;50.660;7.834;2024-03-02T01:39:33;23.50;;;14.60;;
3795;SDS011;1913;50.660;7.834;2024-03-02T01:41:58;25.43;;;15.33;;
3795;SDS011;1913;50.660;7.834;2024-03-02T01:44:23;23.90;;;14.57;;
3795;SDS011;1913;50.660;7.834;2024-03-02T01:46:48;24.00;;;14.40;;
3795;SDS011;1913;50.660;7.834;2024-03-02T01:49:14;25.97;;;15.80;;
3795;SDS011;1913;50.660;7.834;2024-03-02T01:51:39;26.03;;;16.70;;
3795;SDS011;1913;50.660;7.834;2024-03-02T01:54:04;26.27;;;15.60;;
3795;SDS011;1913;50.660;7.834;2024-03-02T01:56:29;25.27;;;15.13;;
3795;SDS011;1913;50.660;7.834;2024-03-02T01:58:54;25.53;;;15.70;;
3795;SDS011;1913;50.660;7.834;2024-03-02T02:01:20;23.83;;;15.00;;
3795;SDS011;1913;50.660;7.834;2024-03-02T02:03:45;28.90;;;16.97;;
3795;SDS011;1913;50.660;7.834;2024-03-02T02:06:10;28.73;;;16.50;;
3795;SDS011;1913;50.660;7.834;2024-03-02T02:08:36;25.70;;;15.53;;
3795;SDS011;1913;50.660;7.834;2024-03-02T02:11:02;24.37;;;15.50;;
3795;SDS011;1913;50.660;7.834;2024-03-02T02:13:27;26.37;;;14.83;;
3795;SDS011;1913;50.660;7.834;2024-03-02T02:15:52;27.50;;;14.47;;
3795;SDS011;1913;50.660;7.834;2024-03-02T02:18:18;25.80;;;15.20;;
3795;SDS011;1913;50.660;7.834;2024-03-02T02:20:43;28.00;;;14.63;;
3795;SDS011;1913;50.660;7.834;2024-03-02T02:23:08;22.37;;;14.17;;
3795;SDS011;1913;50.660;7.834;2024-03-02T02:25:34;23.60;;;14.23;;
3795;SDS011;1913;50.660;7.834;2024-03-02T02:28:00;27.77;;;14.40;;
3795;SDS011;1913;50.660;7.834;2024-03-02T02:30:26;25.20;;;15.63;;
3795;SDS011;1913;50.660;7.834;2024-03-02T02:32:52;23.07;;;14.90;;
3795;SDS011;1913;50.660;7.834;2024-03-02T02:35:17;23.20;;;13.87;;
3795;SDS011;1913;50.660;7.834;2024-03-02T02:37:43;24.00;;;14.50;;
3795;SDS011;1913;50.660;7.834;2024-03-02T02:40:09;22.37;;;13.43;;
3795;SDS011;1913;50.660;7.834;2024-03-02T02:42:34;20.13;;;13.83;;
3795;SDS011;1913;50.660;7.834;2024-03-02T02:44:59;25.67;;;14.40;;
3795;SDS011;1913;50.660;7.834;2024-03-02T02:47:25;22.60;;;13.37;;
3795;SDS011;1913;50.660;7.834;2024-03-02T02:49:50;21.93;;;13.27;;
3795;SDS011;1913;50.660;7.834;2024-03-02T02:52:16;25.37;;;14.50;;
3795;SDS011;1913;50.660;7.834;2024-03-02T02:54:41;23.53;;;14.53;;
3795;SDS011;1913;50.660;7.834;2024-03-02T02:57:06;26.80;;;15.00;;
3795;SDS011;1913;50.660;7.834;2024-03-02T02:59:31;19.67;;;13.23;;
3795;SDS011;1913;50.660;7.834;2024-03-02T03:01:56;21.70;;;13.73;;
3795;SDS011;1913;50.660;7.834;2024-03-02T03:04:22;26.83;;;14.20;;
3795;SDS011;1913;50.660;7.834;2024-03-02T03:06:47;21.10;;;13.77;;
3795;SDS011;1913;50.660;7.834;2024-03-02T03:09:12;23.30;;;13.50;;
3795;SDS011;1913;50.660;7.834;2024-03-02T03:11:37;24.17;;;14.80;;
3795;SDS011;1913;50.660;7.834;2024-03-02T03:14:03;24.30;;;13.73;;
3795;SDS011;1913;50.660;7.834;2024-03-02T03:16:29;22.80;;;12.90;;
3795;SDS011;1913;50.660;7.834;2024-03-02T03:18:55;21.73;;;13.77;;
3795;SDS011;1913;50.660;7.834;2024-03-02T03:21:20;23.37;;;14.40;;
3795;SDS011;1913;50.660;7.834;2024-03-02T03:23:46;23.07;;;12.50;;
3795;SDS011;1913;50.660;7.834;2024-03-02T03:26:11;28.70;;;14.23;;
3795;SDS011;1913;50.660;7.834;2024-03-02T03:28:36;21.13;;;13.10;;
3795;SDS011;1913;50.660;7.834;2024-03-02T03:31:01;22.50;;;13.50;;
3795;SDS011;1913;50.660;7.834;2024-03-02T03:33:27;23.27;;;14.27;;
3795;SDS011;1913;50.660;7.834;2024-03-02T03:35:52;24.03;;;13.67;;
3795;SDS011;1913;50.660;7.834;2024-03-02T03:38:18;22.37;;;13.83;;
3795;SDS011;1913;50.660;7.834;2024-03-02T03:40:44;20.47;;;12.07;;
3795;SDS011;1913;50.660;7.834;2024-03-02T03:43:09;22.03;;;13.83;;
3795;SDS011;1913;50.660;7.834;2024-03-02T03:45:35;21.80;;;12.90;;
3795;SDS011;1913;50.660;7.834;2024-03-02T03:48:00;22.80;;;13.63;;
3795;SDS011;1913;50.660;7.834;2024-03-02T03:50:25;20.20;;;12.70;;
3795;SDS011;1913;50.660;7.834;2024-03-02T03:52:50;21.70;;;11.97;;
3795;SDS011;1913;50.660;7.834;2024-03-02T03:55:15;18.73;;;11.73;;
3795;SDS011;1913;50.660;7.834;2024-03-02T03:57:41;18.90;;;11.33;;
3795;SDS011;1913;50.660;7.834;2024-03-02T04:00:06;22.23;;;12.90;;
3795;SDS011;1913;50.660;7.834;2024-03-02T04:02:31;18.17;;;11.60;;
3795;SDS011;1913;50.660;7.834;2024-03-02T04:04:57;23.50;;;13.80;;
3795;SDS011;1913;50.660;7.834;2024-03-02T04:07:22;21.30;;;13.20;;
3795;SDS011;1913;50.660;7.834;2024-03-02T04:09:47;20.90;;;12.23;;
3795;SDS011;1913;50.660;7.834;2024-03-02T04:12:12;20.23;;;11.97;;
3795;SDS011;1913;50.660;7.834;2024-03-02T04:14:38;19.10;;;11.00;;
3795;SDS011;1913;50.660;7.834;2024-03-02T04:17:06;24.50;;;13.37;;
3795;SDS011;1913;50.660;7.834;2024-03-02T04:19:31;21.57;;;13.80;;
3795;SDS011;1913;50.660;7.834;2024-03-02T04:21:57;20.00;;;12.40;;
3795;SDS011;1913;50.660;7.834;2024-03-02T04:24:22;21.50;;;13.20;;
3795;SDS011;1913;50.660;7.834;2024-03-02T04:26:47;21.70;;;12.93;;
3795;SDS011;1913;50.660;7.834;2024-03-02T04:29:12;19.30;;;11.70;;
3795;SDS011;1913;50.660;7.834;2024-03-02T04:31:37;18.70;;;12.20;;
3795;SDS011;1913;50.660;7.834;2024-03-02T04:34:02;22.73;;;13.47;;
3795;SDS011;1913;50.660;7.834;2024-03-02T04:36:28;20.63;;;12.53;;
3795;SDS011;1913;50.660;7.834;2024-03-02T04:38:53;24.50;;;12.43;;
3795;SDS011;1913;50.660;7.834;2024-03-02T04:41:18;21.30;;;12.73;;
3795;SDS011;1913;50.660;7.834;2024-03-02T04:43:44;22.33;;;12.50;;
3795;SDS011;1913;50.660;7.834;2024-03-02T04:46:09;21.27;;;11.97;;
3795;SDS011;1913;50.660;7.834;2024-03-02T04:48:34;22.00;;;13.00;;
3795;SDS011;1913;50.660;7.834;2024-03-02T04:50:59;18.50;;;11.60;;
3795;SDS011;1913;50.660;7.834;2024-03-02T04:53:25;18.43;;;11.53;;
3795;SDS011;1913;50.660;7.834;2024-03-02T04:55:50;21.70;;;12.30;;
3795;SDS011;1913;50.660;7.834;2024-03-02T04:58:34;17.53;;;11.10;;
3795;SDS011;1913;50.660;7.834;2024-03-02T05:00:59;19.37;;;11.47;;
3795;SDS011;1913;50.660;7.834;2024-03-02T05:03:24;21.27;;;12.50;;
3795;SDS011;1913;50.660;7.834;2024-03-02T05:05:49;22.47;;;12.27;;
3795;SDS011;1913;50.660;7.834;2024-03-02T05:08:15;19.03;;;12.30;;
3795;SDS011;1913;50.660;7.834;2024-03-02T05:10:42;18.20;;;11.67;;
3795;SDS011;1913;50.660;7.834;2024-03-02T05:13:07;18.00;;;10.60;;
3795;SDS011;1913;50.660;7.834;2024-03-02T05:15:32;19.10;;;11.70;;
3795;SDS011;1913;50.660;7.834;2024-03-02T05:17:57;19.97;;;11.27;;
3795;SDS011;1913;50.660;7.834;2024-03-02T05:20:24;18.80;;;11.47;;
3795;SDS011;1913;50.660;7.834;2024-03-02T05:22:49;18.27;;;11.67;;
3795;SDS011;1913;50.660;7.834;2024-03-02T05:25:14;14.80;;;10.03;;
3795;SDS011;1913;50.660;7.834;2024-03-02T05:27:40;16.07;;;10.27;;
3795;SDS011;1913;50.660;7.834;2024-03-02T05:30:05;15.90;;;10.47;;
3795;SDS011;1913;50.660;7.834;2024-03-02T05:32:31;18.57;;;10.13;;
3795;SDS011;1913;50.660;7.834;2024-03-02T05:34:56;14.50;;;8.60;;
3795;SDS011;1913;50.660;7.834;2024-03-02T05:37:21;13.53;;;8.77;;
3795;SDS011;1913;50.660;7.834;2024-03-02T05:39:47;13.80;;;8.67;;
3795;SDS011;1913;50.660;7.834;2024-03-02T05:42:12;13.97;;;8.70;;
3795;SDS011;1913;50.660;7.834;2024-03-02T05:44:37;14.40;;;8.50;;
3795;SDS011;1913;50.660;7.834;2024-03-02T05:47:02;12.93;;;7.87;;
3795;SDS011;1913;50.660;7.834;2024-03-02T05:49:28;11.50;;;7.60;;
3795;SDS011;1913;50.660;7.834;2024-03-02T05:51:54;15.73;;;8.57;;
3795;SDS011;1913;50.660;7.834;2024-03-02T05:54:19;15.37;;;8.00;;
3795;SDS011;1913;50.660;7.834;2024-03-02T05:56:44;15.13;;;8.80;;
3795;SDS011;1913;50.660;7.834;2024-03-02T05:59:10;16.60;;;8.40;;
3795;SDS011;1913;50.660;7.834;2024-03-02T06:01:38;14.07;;;8.80;;
3795;SDS011;1913;50.660;7.834;2024-03-02T06:04:04;16.00;;;9.63;;
3795;SDS011;1913;50.660;7.834;2024-03-02T06:06:29;14.43;;;9.50;;
3795;SDS011;1913;50.660;7.834;2024-03-02T06:08:54;14.87;;;8.57;;
3795;SDS011;1913;50.660;7.834;2024-03-02T06:11:20;13.27;;;9.07;;
3795;SDS011;1913;50.660;7.834;2024-03-02T06:13:45;14.30;;;8.83;;
3795;SDS011;1913;50.660;7.834;2024-03-02T06:16:10;14.10;;;9.00;;
3795;SDS011;1913;50.660;7.834;2024-03-02T06:18:35;13.03;;;8.63;;
3795;SDS011;1913;50.660;7.834;2024-03-02T06:21:01;15.00;;;9.10;;
3795;SDS011;1913;50.660;7.834;2024-03-02T06:23:26;15.33;;;8.13;;
3795;SDS011;1913;50.660;7.834;2024-03-02T06:25:51;12.37;;;8.60;;
3795;SDS011;1913;50.660;7.834;2024-03-02T06:28:17;13.13;;;8.33;;
3795;SDS011;1913;50.660;7.834;2024-03-02T06:30:42;16.13;;;9.10;;
3795;SDS011;1913;50.660;7.834;2024-03-02T06:33:08;13.33;;;8.70;;
3795;SDS011;1913;50.660;7.834;2024-03-02T06:35:33;16.03;;;9.10;;
3795;SDS011;1913;50.660;7.834;2024-03-02T06:38:00;13.80;;;8.03;;
3795;SDS011;1913;50.660;7.834;2024-03-02T06:40:25;19.50;;;8.00;;
3795;SDS011;1913;50.660;7.834;2024-03-02T06:42:50;11.40;;;7.03;;
3795;SDS011;1913;50.660;7.834;2024-03-02T06:45:15;10.00;;;6.70;;
3795;SDS011;1913;50.660;7.834;2024-03-02T06:47:41;12.17;;;7.60;;
3795;SDS011;1913;50.660;7.834;2024-03-02T06:50:06;10.10;;;6.83;;
3795;SDS011;1913;50.660;7.834;2024-03-02T06:52:32;13.57;;;7.90;;
3795;SDS011;1913;50.660;7.834;2024-03-02T06:54:57;12.67;;;7.47;;
3795;SDS011;1913;50.660;7.834;2024-03-02T06:57:22;13.97;;;8.00;;
3795;SDS011;1913;50.660;7.834;2024-03-02T06:59:49;13.83;;;8.30;;
3795;SDS011;1913;50.660;7.834;2024-03-02T07:02:16;13.10;;;8.37;;
3795;SDS011;1913;50.660;7.834;2024-03-02T07:04:41;12.87;;;7.73;;
3795;SDS011;1913;50.660;7.834;2024-03-02T07:07:06;13.60;;;9.50;;
3795;SDS011;1913;50.660;7.834;2024-03-02T07:09:33;12.93;;;8.40;;
3795;SDS011;1913;50.660;7.834;2024-03-02T07:11:58;12.20;;;8.43;;
3795;SDS011;1913;50.660;7.834;2024-03-02T07:14:23;13.33;;;8.67;;
3795;SDS011;1913;50.660;7.834;2024-03-02T07:17:08;13.80;;;7.70;;
3795;SDS011;1913;50.660;7.834;2024-03-02T07:19:34;12.37;;;7.77;;
3795;SDS011;1913;50.660;7.834;2024-03-02T07:22:00;11.07;;;7.23;;
3795;SDS011;1913;50.660;7.834;2024-03-02T07:24:28;12.20;;;7.60;;
3795;SDS011;1913;50.660;7.834;2024-03-02T07:26:53;10.70;;;6.90;;
3795;SDS011;1913;50.660;7.834;2024-03-02T07:29:19;8.83;;;5.70;;
3795;SDS011;1913;50.660;7.834;2024-03-02T07:31:44;10.50;;;6.53;;
3795;SDS011;1913;50.660;7.834;2024-03-02T07:34:09;8.83;;;5.60;;
3795;SDS011;1913;50.660;7.834;2024-03-02T07:36:35;9.70;;;5.50;;
3795;SDS011;1913;50.660;7.834;2024-03-02T07:39:02;7.90;;;5.47;;
3795;SDS011;1913;50.660;7.834;2024-03-02T07:41:27;8.60;;;5.60;;
3795;SDS011;1913;50.660;7.834;2024-03-02T07:43:52;6.27;;;4.93;;
3795;SDS011;1913;50.660;7.834;2024-03-02T07:46:17;8.73;;;5.17;;
3795;SDS011;1913;50.660;7.834;2024-03-02T07:48:42;10.87;;;6.03;;
3795;SDS011;1913;50.660;7.834;2024-03-02T07:51:08;7.53;;;4.70;;
3795;SDS011;1913;50.660;7.834;2024-03-02T07:53:33;6.47;;;4.50;;
3795;SDS011;1913;50.660;7.834;2024-03-02T07:55:58;9.07;;;5.10;;
3795;SDS011;1913;50.660;7.834;2024-03-02T07:58:27;6.63;;;4.90;;
3795;SDS011;1913;50.660;7.834;2024-03-02T08:00:52;15.20;;;6.20;;
3795;SDS011;1913;50.660;7.834;2024-03-02T08:03:18;8.57;;;5.80;;
3795;SDS011;1913;50.660;7.834;2024-03-02T08:05:43;7.77;;;5.70;;
3795;SDS011;1913;50.660;7.834;2024-03-02T08:08:09;9.03;;;6.40;;
3795;SDS011;1913;50.660;7.834;2024-03-02T08:10:34;9.03;;;6.30;;
3795;SDS011;1913;50.660;7.834;2024-03-02T08:12:59;9.77;;;4.77;;
3795;SDS011;1913;50.660;7.834;2024-03-02T08:15:24;8.13;;;4.93;;
3795;SDS011;1913;50.660;7.834;2024-03-02T08:17:50;8.27;;;5.30;;
3795;SDS011;1913;50.660;7.834;2024-03-02T08:20:15;9.23;;;4.77;;
3795;SDS011;1913;50.660;7.834;2024-03-02T08:22:40;7.50;;;4.50;;
3795;SDS011;1913;50.660;7.834;2024-03-02T08:25:06;7.60;;;4.83;;
3795;SDS011;1913;50.660;7.834;2024-03-02T08:27:31;6.23;;;4.53;;
3795;SDS011;1913;50.660;7.834;2024-03-02T08:29:57;5.67;;;4.60;;
3795;SDS011;1913;50.660;7.834;2024-03-02T08:32:23;5.70;;;4.17;;
3795;SDS011;1913;50.660;7.834;2024-03-02T08:34:48;6.23;;;4.13;;
3795;SDS011;1913;50.660;7.834;2024-03-02T08:37:13;5.40;;;4.20;;
3795;SDS011;1913;50.660;7.834;2024-03-02T08:39:38;5.83;;;4.20;;
3795;SDS011;1913;50.660;7.834;2024-03-02T08:42:03;5.50;;;4.30;;
3795;SDS011;1913;50.660;7.834;2024-03-02T08:44:29;7.77;;;4.73;;
3795;SDS011;1913;50.660;7.834;2024-03-02T08:46:54;9.40;;;4.90;;
3795;SDS011;1913;50.660;7.834;2024-03-02T08:49:19;6.87;;;4.47;;
3795;SDS011;1913;50.660;7.834;2024-03-02T08:51:45;5.87;;;4.33;;
3795;SDS011;1913;50.660;7.834;2024-03-02T08:54:10;6.43;;;4.30;;
3795;SDS011;1913;50.660;7.834;2024-03-02T08:56:35;5.80;;;4.40;;
3795;SDS011;1913;50.660;7.834;2024-03-02T08:59:01;8.67;;;4.87;;
3795;SDS011;1913;50.660;7.834;2024-03-02T09:01:26;6.83;;;4.50;;
3795;SDS011;1913;50.660;7.834;2024-03-02T09:03:51;7.20;;;4.60;;
3795;SDS011;1913;50.660;7.834;2024-03-02T09:06:16;5.30;;;3.90;;
3795;SDS011;1913;50.660;7.834;2024-03-02T09:08:42;7.27;;;4.30;;
3795;SDS011;1913;50.660;7.834;2024-03-02T09:11:08;6.30;;;3.97;;
3795;SDS011;1913;50.660;7.834;2024-03-02T09:13:33;7.33;;;4.30;;
3795;SDS011;1913;50.660;7.834;2024-03-02T09:15:58;6.27;;;4.10;;
3795;SDS011;1913;50.660;7.834;2024-03-02T09:18:23;5.90;;;4.40;;
3795;SDS011;1913;50.660;7.834;2024-03-02T09:20:49;7.10;;;4.33;;
3795;SDS011;1913;50.660;7.834;2024-03-02T09:23:14;7.57;;;4.50;;
3795;SDS011;1913;50.660;7.834;2024-03-02T09:25:39;6.80;;;4.07;;
3795;SDS011;1913;50.660;7.834;2024-03-02T09:28:04;6.00;;;4.07;;
3795;SDS011;1913;50.660;7.834;2024-03-02T09:30:29;6.63;;;4.70;;
3795;SDS011;1913;50.660;7.834;2024-03-02T09:32:55;5.33;;;4.07;;
3795;SDS011;1913;50.660;7.834;2024-03-02T09:35:20;6.73;;;4.10;;
3795;SDS011;1913;50.660;7.834;2024-03-02T09:37:45;4.27;;;3.47;;
3795;SDS011;1913;50.660;7.834;2024-03-02T09:40:10;6.73;;;4.00;;
3795;SDS011;1913;50.660;7.834;2024-03-02T09:42:36;6.07;;;3.77;;
3795;SDS011;1913;50.660;7.834;2024-03-02T09:45:01;6.70;;;4.20;;
3795;SDS011;1913;50.660;7.834;2024-03-02T09:47:26;4.37;;;3.60;;
3795;SDS011;1913;50.660;7.834;2024-03-02T09:49:52;6.50;;;3.77;;
3795;SDS011;1913;50.660;7.834;2024-03-02T09:52:17;5.63;;;3.90;;
3795;SDS011;1913;50.660;7.834;2024-03-02T09:54:42;6.23;;;3.67;;
3795;SDS011;1913;50.660;7.834;2024-03-02T09:57:07;7.63;;;3.63;;
3795;SDS011;1913;50.660;7.834;2024-03-02T09:59:33;5.00;;;3.73;;
3795;SDS011;1913;50.660;7.834;2024-03-02T10:01:59;6.23;;;3.60;;
3795;SDS011;1913;50.660;7.834;2024-03-02T10:04:25;5.00;;;3.73;;
3795;SDS011;1913;50.660;7.834;2024-03-02T10:06:50;4.20;;;3.40;;
3795;SDS011;1913;50.660;7.834;2024-03-02T10:09:26;4.77;;;3.40;;
3795;SDS011;1913;50.660;7.834;2024-03-02T10:11:51;4.43;;;3.23;;
3795;SDS011;1913;50.660;7.834;2024-03-02T10:14:17;4.20;;;3.03;;
3795;SDS011;1913;50.660;7.834;2024-03-02T10:16:43;5.07;;;2.70;;
3795;SDS011;1913;50.660;7.834;2024-03-02T10:21:40;5.43;;;3.30;;
3795;SDS011;1913;50.660;7.834;2024-03-02T10:24:06;3.97;;;2.70;;
3795;SDS011;1913;50.660;7.834;2024-03-02T10:26:32;5.00;;;3.47;;
3795;SDS011;1913;50.660;7.834;2024-03-02T10:28:57;4.73;;;3.10;;
3795;SDS011;1913;50.660;7.834;2024-03-02T10:31:24;4.97;;;3.40;;
3795;SDS011;1913;50.660;7.834;2024-03-02T10:33:52;4.63;;;3.50;;
3795;SDS011;1913;50.660;7.834;2024-03-02T10:36:18;5.00;;;3.60;;
3795;SDS011;1913;50.660;7.834;2024-03-02T10:38:43;5.70;;;3.80;;
3795;SDS011;1913;50.660;7.834;2024-03-02T10:41:09;5.67;;;3.57;;
3795;SDS011;1913;50.660;7.834;2024-03-02T10:43:34;4.27;;;3.67;;
3795;SDS011;1913;50.660;7.834;2024-03-02T10:46:00;4.40;;;3.53;;
3795;SDS011;1913;50.660;7.834;2024-03-02T10:48:26;5.10;;;3.63;;
3795;SDS011;1913;50.660;7.834;2024-03-02T10:50:52;4.57;;;3.40;;
3795;SDS011;1913;50.660;7.834;2024-03-02T10:53:18;4.27;;;3.60;;
3795;SDS011;1913;50.660;7.834;2024-03-02T10:55:43;4.63;;;3.33;;
3795;SDS011;1913;50.660;7.834;2024-03-02T10:58:08;5.80;;;3.40;;
3795;SDS011;1913;50.660;7.834;2024-03-02T11:00:37;5.60;;;3.70;;
3795;SDS011;1913;50.660;7.834;2024-03-02T11:03:06;4.47;;;3.33;;
3795;SDS011;1913;50.660;7.834;2024-03-02T11:05:36;3.47;;;3.10;;
3795;SDS011;1913;50.660;7.834;2024-03-02T11:08:02;4.10;;;3.27;;
3795;SDS011;1913;50.660;7.834;2024-03-02T11:10:32;3.60;;;3.03;;
3795;SDS011;1913;50.660;7.834;2024-03-02T11:13:02;5.47;;;3.60;;
3795;SDS011;1913;50.660;7.834;2024-03-02T11:15:27;5.60;;;3.53;;
3795;SDS011;1913;50.660;7.834;2024-03-02T11:17:53;4.30;;;3.57;;
3795;SDS011;1913;50.660;7.834;2024-03-02T11:20:19;4.73;;;3.13;;
3795;SDS011;1913;50.660;7.834;2024-03-02T11:22:45;5.97;;;3.57;;
3795;SDS011;1913;50.660;7.834;2024-03-02T11:25:31;7.17;;;3.93;;
3795;SDS011;1913;50.660;7.834;2024-03-02T11:32:58;4.00;;;3.10;;
3795;SDS011;1913;50.660;7.834;2024-03-02T11:35:27;3.67;;;3.23;;
3795;SDS011;1913;50.660;7.834;2024-03-02T11:37:55;5.03;;;3.67;;
3795;SDS011;1913;50.660;7.834;2024-03-02T11:40:27;3.60;;;3.17;;
3795;SDS011;1913;50.660;7.834;2024-03-02T11:42:52;6.10;;;4.00;;
3795;SDS011;1913;50.660;7.834;2024-03-02T11:45:22;5.30;;;4.00;;
3795;SDS011;1913;50.660;7.834;2024-03-02T11:47:50;5.70;;;3.73;;
3795;SDS011;1913;50.660;7.834;2024-03-02T11:50:15;5.47;;;3.57;;
3795;SDS011;1913;50.660;7.834;2024-03-02T11:52:40;5.70;;;3.60;;
3795;SDS011;1913;50.660;7.834;2024-03-02T11:55:06;7.10;;;4.17;;
3795;SDS011;1913;50.660;7.834;2024-03-02T11:57:34;5.70;;;3.77;;
3795;SDS011;1913;50.660;7.834;2024-03-02T12:00:00;4.20;;;3.53;;
3795;SDS011;1913;50.660;7.834;2024-03-02T12:02:28;5.33;;;3.27;;
3795;SDS011;1913;50.660;7.834;2024-03-02T12:04:54;4.13;;;3.20;;
3795;SDS011;1913;50.660;7.834;2024-03-02T12:07:19;4.97;;;3.53;;
3795;SDS011;1913;50.660;7.834;2024-03-02T12:09:48;4.13;;;3.23;;
3795;SDS011;1913;50.660;7.834;2024-03-02T12:12:14;5.03;;;3.00;;
3795;SDS011;1913;50.660;7.834;2024-03-02T12:14:52;4.53;;;3.13;;
3795;SDS011;1913;50.660;7.834;2024-03-02T12:17:18;2.90;;;2.60;;
3795;SDS011;1913;50.660;7.834;2024-03-02T12:19:43;3.03;;;2.70;;
3795;SDS011;1913;50.660;7.834;2024-03-02T12:22:09;3.43;;;3.10;;
3795;SDS011;1913;50.660;7.834;2024-03-02T12:24:34;3.47;;;2.77;;
3795;SDS011;1913;50.660;7.834;2024-03-02T12:26:59;5.57;;;3.00;;
3795;SDS011;1913;50.660;7.834;2024-03-02T12:29:24;3.73;;;2.90;;
3795;SDS011;1913;50.660;7.834;2024-03-02T12:31:50;3.20;;;2.83;;
3795;SDS011;1913;50.660;7.834;2024-03-02T12:34:17;5.93;;;3.20;;
3795;SDS011;1913;50.660;7.834;2024-03-02T12:36:43;5.33;;;3.10;;
3795;SDS011;1913;50.660;7.834;2024-03-02T12:39:08;4.37;;;3.30;;
3795;SDS011;1913;50.660;7.834;2024-03-02T12:41:37;6.00;;;3.50;;
3795;SDS011;1913;50.660;7.834;2024-03-02T12:44:03;4.20;;;2.80;;
3795;SDS011;1913;50.660;7.834;2024-03-02T12:46:29;5.30;;;2.90;;
3795;SDS011;1913;50.660;7.834;2024-03-02T12:48:55;5.17;;;3.10;;
3795;SDS011;1913;50.660;7.834;2024-03-02T12:51:20;3.10;;;2.50;;
3795;SDS011;1913;50.660;7.834;2024-03-02T12:53:45;4.03;;;3.17;;
3795;SDS011;1913;50.660;7.834;2024-03-02T12:56:11;3.40;;;3.00;;
3795;SDS011;1913;50.660;7.834;2024-03-02T12:58:39;4.23;;;2.87;;
3795;SDS011;1913;50.660;7.834;2024-03-02T13:01:06;4.50;;;2.80;;
3795;SDS011;1913;50.660;7.834;2024-03-02T13:03:34;5.53;;;2.43;;
3795;SDS011;1913;50.660;7.834;2024-03-02T13:06:00;3.80;;;2.97;;
3795;SDS011;1913;50.660;7.834;2024-03-02T13:08:25;4.50;;;3.60;;
3795;SDS011;1913;50.660;7.834;2024-03-02T13:10:50;4.20;;;2.50;;
3795;SDS011;1913;50.660;7.834;2024-03-02T13:13:15;3.67;;;2.90;;
3795;SDS011;1913;50.660;7.834;2024-03-02T13:15:41;4.57;;;3.00;;
3795;SDS011;1913;50.660;7.834;2024-03-02T13:18:07;2.53;;;2.33;;
3795;SDS011;1913;50.660;7.834;2024-03-02T13:20:32;3.00;;;2.60;;
3795;SDS011;1913;50.660;7.834;2024-03-02T13:22:57;2.40;;;2.20;;
3795;SDS011;1913;50.660;7.834;2024-03-02T13:25:23;3.10;;;1.97;;
3795;SDS011;1913;50.660;7.834;2024-03-02T13:27:48;6.37;;;2.77;;
3795;SDS011;1913;50.660;7.834;2024-03-02T13:30:13;8.50;;;2.80;;
3795;SDS011;1913;50.660;7.834;2024-03-02T13:32:38;3.30;;;2.20;;
3795;SDS011;1913;50.660;7.834;2024-03-02T13:35:03;5.03;;;2.57;;
3795;SDS011;1913;50.660;7.834;2024-03-02T13:37:29;3.13;;;2.53;;
3795;SDS011;1913;50.660;7.834;2024-03-02T13:39:54;2.73;;;2.30;;
3795;SDS011;1913;50.660;7.834;2024-03-02T13:42:19;3.00;;;2.50;;
3795;SDS011;1913;50.660;7.834;2024-03-02T13:44:44;5.10;;;2.27;;
3795;SDS011;1913;50.660;7.834;2024-03-02T13:47:15;4.97;;;2.90;;
3795;SDS011;1913;50.660;7.834;2024-03-02T13:49:40;5.67;;;2.87;;
3795;SDS011;1913;50.660;7.834;2024-03-02T13:52:09;3.20;;;2.30;;
3795;SDS011;1913;50.660;7.834;2024-03-02T13:54:41;2.40;;;2.20;;
3795;SDS011;1913;50.660;7.834;2024-03-02T13:57:07;3.80;;;2.23;;
3795;SDS011;1913;50.660;7.834;2024-03-02T13:59:33;2.30;;;2.10;;
3795;SDS011;1913;50.660;7.834;2024-03-02T14:01:59;3.67;;;2.30;;
3795;SDS011;1913;50.660;7.834;2024-03-02T14:04:24;2.43;;;2.00;;
3795;SDS011;1913;50.660;7.834;2024-03-02T14:06:49;4.73;;;1.90;;
3795;SDS011;1913;50.660;7.834;2024-03-02T14:09:14;2.40;;;2.20;;
3795;SDS011;1913;50.660;7.834;2024-03-02T14:11:40;1.80;;;1.63;;
3795;SDS011;1913;50.660;7.834;2024-03-02T14:14:05;2.73;;;1.87;;
3795;SDS011;1913;50.660;7.834;2024-03-02T14:16:30;4.50;;;2.10;;
3795;SDS011;1913;50.660;7.834;2024-03-02T14:18:55;3.37;;;2.20;;
3795;SDS011;1913;50.660;7.834;2024-03-02T14:21:21;4.00;;;2.00;;
3795;SDS011;1913;50.660;7.834;2024-03-02T14:23:46;2.30;;;1.83;;
3795;SDS011;1913;50.660;7.834;2024-03-02T14:26:11;2.53;;;1.90;;
3795;SDS011;1913;50.660;7.834;2024-03-02T14:28:37;2.17;;;1.77;;
3795;SDS011;1913;50.660;7.834;2024-03-02T14:31:02;2.47;;;1.90;;
3795;SDS011;1913;50.660;7.834;2024-03-02T14:33:27;1.70;;;1.60;;
3795;SDS011;1913;50.660;7.834;2024-03-02T14:35:53;1.90;;;1.70;;
3795;SDS011;1913;50.660;7.834;2024-03-02T14:38:18;3.53;;;1.90;;
3795;SDS011;1913;50.660;7.834;2024-03-02T14:40:44;1.87;;;1.70;;
3795;SDS011;1913;50.660;7.834;2024-03-02T14:43:09;1.83;;;1.37;;
3795;SDS011;1913;50.660;7.834;2024-03-02T14:45:34;2.93;;;1.80;;
3795;SDS011;1913;50.660;7.834;2024-03-02T14:48:00;3.60;;;1.87;;
3795;SDS011;1913;50.660;7.834;2024-03-02T14:50:26;2.90;;;1.80;;
3795;SDS011;1913;50.660;7.834;2024-03-02T14:52:51;3.20;;;1.50;;
3795;SDS011;1913;50.660;7.834;2024-03-02T14:55:16;2.13;;;1.67;;
3795;SDS011;1913;50.660;7.834;2024-03-02T14:57:41;1.90;;;1.50;;
3795;SDS011;1913;50.660;7.834;2024-03-02T15:00:07;1.60;;;1.50;;
3795;SDS011;1913;50.660;7.834;2024-03-02T15:02:32;1.57;;;1.20;;
3795;SDS011;1913;50.660;7.834;2024-03-02T15:04:58;2.07;;;1.60;;
3795;SDS011;1913;50.660;7.834;2024-03-02T15:07:23;1.90;;;1.43;;